sensor_id;sensor_type;location;lat;lon;timestamp;pressure;altitude;pressure_sealevel;temperature;humidity
34124;BME280;13153;52.316;21.166;2023-03-11T06:14:34;97474.63;;;11.76;61.10
34124;BME280;13153;52.316;21.166;2023-03-11T06:16:59;97475.47;;;11.80;60.93
34124;BME280;13153;52.316;21.166;2023-03-11T06:19:25;97483.41;;;11.78;60.78
34124;BME280;13153;52.316;21.166;2023-03-11T06:21:51;97478.97;;;11.80;60.76
34124;BME280;13153;52.316;21.166;2023-03-11T06:24:18;97485.06;;;11.82;60.71
34124;BME280;13153;52.316;21.166;2023-03-11T06:26:44;97485.84;;;11.86;60.66
34124;BME280;13153;52.316;21.166;2023-03-11T06:29:13;97485.66;;;11.94;60.96
34124;BME280;13153;52.316;21.166;2023-03-11T06:31:40;97482.78;;;12.03;60.70
34124;BME280;13153;52.316;21.166;2023-03-11T06:34:08;97485.25;;;12.09;60.73
34124;BME280;13153;52.316;21.166;2023-03-11T06:36:34;97491.25;;;12.14;60.69
34124;BME280;13153;52.316;21.166;2023-03-11T06:38:59;97497.31;;;12.17;60.79
34124;BME280;13153;52.316;21.166;2023-03-11T06:41:25;97504.34;;;12.17;60.71
34124;BME280;13153;52.316;21.166;2023-03-11T06:43:51;97504.38;;;12.15;61.07
34124;BME280;13153;52.316;21.166;2023-03-11T06:46:20;97504.25;;;12.20;60.88
34124;BME280;13153;52.316;21.166;2023-03-11T06:48:47;97505.03;;;12.23;61.26
34124;BME280;13153;52.316;21.166;2023-03-11T06:51:17;97503.19;;;12.27;61.06
34124;BME280;13153;52.316;21.166;2023-03-11T06:53:43;97504.94;;;12.28;61.13
34124;BME280;13153;52.316;21.166;2023-03-11T06:56:11;97514.53;;;12.31;60.94
34124;BME280;13153;52.316;21.166;2023-03-11T06:58:40;97510.94;;;12.33;60.81
34124;BME280;13153;52.316;21.166;2023-03-11T07:01:14;97506.50;;;12.35;60.95
34124;BME280;13153;52.316;21.166;2023-03-11T07:03:41;97509.16;;;12.34;61.51
34124;BME280;13153;52.316;21.166;2023-03-11T07:06:15;97502.00;;;12.39;61.49
34124;BME280;13153;52.316;21.166;2023-03-11T07:08:41;97507.13;;;12.45;61.00
34124;BME280;13153;52.316;21.166;2023-03-11T07:11:10;97509.63;;;12.49;61.07
34124;BME280;13153;52.316;21.166;2023-03-11T07:13:37;97510.38;;;12.54;61.31
34124;BME280;13153;52.316;21.166;2023-03-11T07:16:13;97510.41;;;12.53;61.27
34124;BME280;13153;52.316;21.166;2023-03-11T07:18:41;97513.94;;;12.52;61.16
34124;BME280;13153;52.316;21.166;2023-03-11T07:21:09;97511.28;;;12.53;61.13
34124;BME280;13153;52.316;21.166;2023-03-11T07:23:36;97512.13;;;12.54;60.88
34124;BME280;13153;52.316;21.166;2023-03-11T07:26:02;97507.38;;;12.67;61.20
34124;BME280;13153;52.316;21.166;2023-03-11T07:28:29;97516.56;;;12.83;60.29
34124;BME280;13153;52.316;21.166;2023-03-11T07:30:55;97514.13;;;13.06;60.14
34124;BME280;13153;52.316;21.166;2023-03-11T07:33:22;97516.88;;;13.33;59.15
34124;BME280;13153;52.316;21.166;2023-03-11T07:35:52;97518.94;;;13.51;58.70
34124;BME280;13153;52.316;21.166;2023-03-11T07:38:18;97519.56;;;13.59;57.72
34124;BME280;13153;52.316;21.166;2023-03-11T07:40:44;97520.53;;;13.57;57.76
34124;BME280;13153;52.316;21.166;2023-03-11T07:43:10;97531.16;;;13.55;57.51
34124;BME280;13153;52.316;21.166;2023-03-11T07:45:36;97534.69;;;13.54;57.52
34124;BME280;13153;52.316;21.166;2023-03-11T07:48:02;97525.03;;;13.53;57.35
34124;BME280;13153;52.316;21.166;2023-03-11T07:50:28;97529.38;;;13.55;57.28
34124;BME280;13153;52.316;21.166;2023-03-11T07:52:53;97535.69;;;13.50;57.51
34124;BME280;13153;52.316;21.166;2023-03-11T07:55:19;97538.44;;;13.47;57.91
34124;BME280;13153;52.316;21.166;2023-03-11T07:57:48;97539.50;;;13.41;57.85
34124;BME280;13153;52.316;21.166;2023-03-11T08:00:16;97544.97;;;13.35;57.63
34124;BME280;13153;52.316;21.166;2023-03-11T08:02:42;97538.84;;;13.33;57.67
34124;BME280;13153;52.316;21.166;2023-03-11T08:05:09;97552.09;;;13.32;58.00
34124;BME280;13153;52.316;21.166;2023-03-11T08:07:35;97548.63;;;13.30;58.23
34124;BME280;13153;52.316;21.166;2023-03-11T08:10:00;97548.59;;;13.31;58.46
34124;BME280;13153;52.316;21.166;2023-03-11T08:12:26;97554.66;;;13.35;58.16
34124;BME280;13153;52.316;21.166;2023-03-11T08:14:52;97554.66;;;13.35;58.28
34124;BME280;13153;52.316;21.166;2023-03-11T08:17:18;97552.00;;;13.35;57.85
34124;BME280;13153;52.316;21.166;2023-03-11T08:19:43;97557.44;;;13.30;58.49
34124;BME280;13153;52.316;21.166;2023-03-11T08:22:09;97563.88;;;13.21;58.53
34124;BME280;13153;52.316;21.166;2023-03-11T08:24:35;97563.88;;;13.21;58.86
34124;BME280;13153;52.316;21.166;2023-03-11T08:27:01;97569.19;;;13.20;58.84
34124;BME280;13153;52.316;21.166;2023-03-11T08:29:27;97568.47;;;13.13;58.80
34124;BME280;13153;52.316;21.166;2023-03-11T08:31:52;97567.56;;;13.14;58.87
34124;BME280;13153;52.316;21.166;2023-03-11T08:34:18;97574.63;;;13.14;58.93
34124;BME280;13153;52.316;21.166;2023-03-11T08:36:45;97579.28;;;13.04;59.27
34124;BME280;13153;52.316;21.166;2023-03-11T08:39:11;97587.13;;;13.07;59.66
34124;BME280;13153;52.316;21.166;2023-03-11T08:41:37;97580.13;;;13.06;59.39
34124;BME280;13153;52.316;21.166;2023-03-11T08:44:03;97583.66;;;13.05;59.58
34124;BME280;13153;52.316;21.166;2023-03-11T08:46:33;97588.94;;;13.05;59.87
34124;BME280;13153;52.316;21.166;2023-03-11T08:49:01;97588.13;;;13.03;60.17
34124;BME280;13153;52.316;21.166;2023-03-11T08:51:30;97597.78;;;13.04;60.02
34124;BME280;13153;52.316;21.166;2023-03-11T08:53:57;97602.97;;;13.07;59.97
34124;BME280;13153;52.316;21.166;2023-03-11T08:56:22;97602.97;;;13.07;60.03
34124;BME280;13153;52.316;21.166;2023-03-11T08:58:48;97610.97;;;13.04;59.85
34124;BME280;13153;52.316;21.166;2023-03-11T09:01:16;97602.28;;;13.01;60.07
34124;BME280;13153;52.316;21.166;2023-03-11T09:03:42;97611.97;;;13.00;60.37
34124;BME280;13153;52.316;21.166;2023-03-11T09:06:13;97615.56;;;12.98;60.44
34124;BME280;13153;52.316;21.166;2023-03-11T09:08:40;97615.75;;;12.90;60.60
34124;BME280;13153;52.316;21.166;2023-03-11T09:11:07;97619.38;;;12.86;60.30
34124;BME280;13153;52.316;21.166;2023-03-11T09:13:33;97618.56;;;12.84;60.61
34124;BME280;13153;52.316;21.166;2023-03-11T09:15:59;97638.09;;;12.77;60.64
34124;BME280;13153;52.316;21.166;2023-03-11T09:18:25;97632.91;;;12.74;60.86
34124;BME280;13153;52.316;21.166;2023-03-11T09:20:51;97637.31;;;12.73;61.03
34124;BME280;13153;52.316;21.166;2023-03-11T09:23:22;97645.34;;;12.70;61.25
34124;BME280;13153;52.316;21.166;2023-03-11T09:25:48;97643.59;;;12.69;60.93
34124;BME280;13153;52.316;21.166;2023-03-11T09:28:14;97650.66;;;12.69;61.20
34124;BME280;13153;52.316;21.166;2023-03-11T09:30:40;97649.75;;;12.70;61.39
34124;BME280;13153;52.316;21.166;2023-03-11T09:33:06;97656.13;;;12.61;60.84
34124;BME280;13153;52.316;21.166;2023-03-11T09:35:32;97669.31;;;12.61;61.34
34124;BME280;13153;52.316;21.166;2023-03-11T09:37:58;97665.88;;;12.57;61.26
34124;BME280;13153;52.316;21.166;2023-03-11T09:40:27;97665.31;;;12.45;61.25
34124;BME280;13153;52.316;21.166;2023-03-11T09:43:34;97679.50;;;12.39;61.50
34124;BME280;13153;52.316;21.166;2023-03-11T09:46:23;97693.53;;;12.41;62.11
34124;BME280;13153;52.316;21.166;2023-03-11T09:51:31;97700.72;;;12.35;61.14
34124;BME280;13153;52.316;21.166;2023-03-11T09:54:09;97708.19;;;12.16;60.26
34124;BME280;13153;52.316;21.166;2023-03-11T09:56:37;97714.53;;;12.09;60.63
34124;BME280;13153;52.316;21.166;2023-03-11T09:59:15;97721.72;;;12.01;60.44
34124;BME280;13153;52.316;21.166;2023-03-11T10:01:45;97727.19;;;11.92;60.03
34124;BME280;13153;52.316;21.166;2023-03-11T10:04:37;97729.16;;;11.82;59.76
34124;BME280;13153;52.316;21.166;2023-03-11T10:07:13;97738.00;;;11.79;59.73
34124;BME280;13153;52.316;21.166;2023-03-11T10:09:53;97741.53;;;11.78;59.04
34124;BME280;13153;52.316;21.166;2023-03-11T10:18:42;97760.38;;;11.55;57.82
34124;BME280;13153;52.316;21.166;2023-03-11T10:25:12;97777.75;;;11.21;55.90
34124;BME280;13153;52.316;21.166;2023-03-11T10:30:26;97784.91;;;11.11;55.77
34124;BME280;13153;52.316;21.166;2023-03-11T10:33:06;97797.50;;;10.96;55.33
34124;BME280;13153;52.316;21.166;2023-03-11T10:35:41;97797.78;;;10.79;54.59
34124;BME280;13153;52.316;21.166;2023-03-11T10:38:27;97801.25;;;10.81;54.54
34124;BME280;13153;52.316;21.166;2023-03-11T10:41:02;97811.69;;;10.85;54.67
34124;BME280;13153;52.316;21.166;2023-03-11T10:43:42;97818.03;;;10.72;53.26
34124;BME280;13153;52.316;21.166;2023-03-11T10:46:19;97827.81;;;10.63;53.09
34124;BME280;13153;52.316;21.166;2023-03-11T10:48:47;97837.72;;;10.44;53.80
34124;BME280;13153;52.316;21.166;2023-03-11T10:51:18;97842.25;;;10.36;54.02
34124;BME280;13153;52.316;21.166;2023-03-11T10:53:57;97853.69;;;10.32;54.26
34124;BME280;13153;52.316;21.166;2023-03-11T10:56:33;97865.19;;;10.23;54.54
34124;BME280;13153;52.316;21.166;2023-03-11T10:59:01;97872.25;;;10.15;55.45
34124;BME280;13153;52.316;21.166;2023-03-11T11:01:28;97883.66;;;10.14;56.16
34124;BME280;13153;52.316;21.166;2023-03-11T11:03:57;97888.94;;;10.11;55.83
34124;BME280;13153;52.316;21.166;2023-03-11T11:06:35;97895.13;;;10.07;55.80
34124;BME280;13153;52.316;21.166;2023-03-11T11:09:20;97892.53;;;10.04;55.23
34124;BME280;13153;52.316;21.166;2023-03-11T11:12:00;97902.31;;;9.89;54.34
34124;BME280;13153;52.316;21.166;2023-03-11T11:14:49;97906.84;;;9.78;53.52
34124;BME280;13153;52.316;21.166;2023-03-11T11:17:30;97912.16;;;9.71;53.40
34124;BME280;13153;52.316;21.166;2023-03-11T11:19:58;97933.34;;;9.52;52.63
34124;BME280;13153;52.316;21.166;2023-03-11T11:22:28;97938.50;;;9.62;52.72
34124;BME280;13153;52.316;21.166;2023-03-11T11:24:56;97944.59;;;9.65;52.85
34124;BME280;13153;52.316;21.166;2023-03-11T11:27:27;97954.28;;;9.60;52.41
34124;BME280;13153;52.316;21.166;2023-03-11T11:32:36;97955.31;;;9.41;50.82
34124;BME280;13153;52.316;21.166;2023-03-11T11:35:12;97959.75;;;9.30;50.54
34124;BME280;13153;52.316;21.166;2023-03-11T11:37:44;97968.63;;;9.18;50.67
34124;BME280;13153;52.316;21.166;2023-03-11T11:42:50;97993.19;;;9.05;50.93
34124;BME280;13153;52.316;21.166;2023-03-11T11:45:38;97992.31;;;9.04;51.31
34124;BME280;13153;52.316;21.166;2023-03-11T11:48:18;98002.84;;;8.98;50.99
34124;BME280;13153;52.316;21.166;2023-03-11T11:50:57;98003.69;;;9.02;51.14
34124;BME280;13153;52.316;21.166;2023-03-11T11:53:36;98013.28;;;9.07;50.70
34124;BME280;13153;52.316;21.166;2023-03-11T11:56:04;98015.00;;;9.08;51.49
34124;BME280;13153;52.316;21.166;2023-03-11T11:58:30;98026.34;;;9.13;50.78
34124;BME280;13153;52.316;21.166;2023-03-11T12:01:24;98035.09;;;9.11;50.82
34124;BME280;13153;52.316;21.166;2023-03-11T12:04:19;98043.88;;;9.07;50.56
34124;BME280;13153;52.316;21.166;2023-03-11T12:10:01;98064.94;;;8.90;52.29
34124;BME280;13153;52.316;21.166;2023-03-11T12:13:22;98069.28;;;8.91;51.82
34124;BME280;13153;52.316;21.166;2023-03-11T12:18:49;98086.81;;;8.80;52.65
34124;BME280;13153;52.316;21.166;2023-03-11T12:24:58;98102.53;;;8.84;53.37
34124;BME280;13153;52.316;21.166;2023-03-11T12:27:31;98108.63;;;8.91;53.12
34124;BME280;13153;52.316;21.166;2023-03-11T12:30:04;98123.44;;;9.01;52.54
34124;BME280;13153;52.316;21.166;2023-03-11T12:32:43;98127.78;;;9.10;52.68
34124;BME280;13153;52.316;21.166;2023-03-11T12:35:29;98135.63;;;9.17;53.29
34124;BME280;13153;52.316;21.166;2023-03-11T12:40:46;98151.28;;;9.33;52.50
34124;BME280;13153;52.316;21.166;2023-03-11T12:46:00;98158.38;;;9.18;51.97
34124;BME280;13153;52.316;21.166;2023-03-11T12:50:52;98174.16;;;9.06;51.55
34124;BME280;13153;52.316;21.166;2023-03-11T12:53:19;98182.03;;;9.00;51.96
34124;BME280;13153;52.316;21.166;2023-03-11T13:04:58;98220.53;;;8.83;52.96
34124;BME280;13153;52.316;21.166;2023-03-11T13:10:47;98238.03;;;8.63;53.06
34124;BME280;13153;52.316;21.166;2023-03-11T13:18:40;98251.09;;;8.26;53.66
34124;BME280;13153;52.316;21.166;2023-03-11T13:30:04;98288.63;;;8.23;54.39
34124;BME280;13153;52.316;21.166;2023-03-11T13:33:16;98296.47;;;8.22;54.48
34124;BME280;13153;52.316;21.166;2023-03-11T13:41:30;98314.81;;;8.20;54.24
34124;BME280;13153;52.316;21.166;2023-03-11T13:44:19;98329.66;;;8.20;54.65
34124;BME280;13153;52.316;21.166;2023-03-11T13:46:50;98346.25;;;8.19;54.85
34124;BME280;13153;52.316;21.166;2023-03-11T13:51:57;98360.16;;;8.01;54.38
34124;BME280;13153;52.316;21.166;2023-03-11T13:54:48;98354.94;;;8.00;55.29
34124;BME280;13153;52.316;21.166;2023-03-11T13:57:37;98361.03;;;7.95;54.80
34124;BME280;13153;52.316;21.166;2023-03-11T14:00:17;98368.00;;;7.98;54.79
34124;BME280;13153;52.316;21.166;2023-03-11T14:02:49;98375.88;;;8.01;55.54
34124;BME280;13153;52.316;21.166;2023-03-11T14:05:22;98376.75;;;7.99;54.43
34124;BME280;13153;52.316;21.166;2023-03-11T14:07:49;98387.19;;;7.94;54.95
34124;BME280;13153;52.316;21.166;2023-03-11T14:10:27;98397.53;;;7.70;54.68
34124;BME280;13153;52.316;21.166;2023-03-11T14:13:16;98394.91;;;7.68;54.50
34124;BME280;13153;52.316;21.166;2023-03-11T14:16:05;98410.59;;;7.68;54.29
34124;BME280;13153;52.316;21.166;2023-03-11T14:18:40;98410.63;;;7.70;54.10
34124;BME280;13153;52.316;21.166;2023-03-11T14:21:19;98420.22;;;7.69;54.05
34124;BME280;13153;52.316;21.166;2023-03-11T14:23:53;98424.56;;;7.69;54.66
34124;BME280;13153;52.316;21.166;2023-03-11T14:29:10;98437.59;;;7.61;54.55
34124;BME280;13153;52.316;21.166;2023-03-11T14:31:42;98434.09;;;7.59;53.65
34124;BME280;13153;52.316;21.166;2023-03-11T14:34:27;98433.19;;;7.49;53.12
34124;BME280;13153;52.316;21.166;2023-03-11T14:36:58;98447.13;;;7.47;53.26
34124;BME280;13153;52.316;21.166;2023-03-11T14:39:36;98469.78;;;7.45;52.50
34124;BME280;13153;52.316;21.166;2023-03-11T14:42:22;98459.38;;;7.51;52.01
34124;BME280;13153;52.316;21.166;2023-03-11T14:45:13;98482.91;;;7.51;51.79
34124;BME280;13153;52.316;21.166;2023-03-11T14:47:54;98479.41;;;7.52;50.99
34124;BME280;13153;52.316;21.166;2023-03-11T14:50:26;98482.81;;;7.39;51.20
34124;BME280;13153;52.316;21.166;2023-03-11T14:53:07;98490.56;;;7.29;51.47
34124;BME280;13153;52.316;21.166;2023-03-11T14:55:48;98492.34;;;7.34;51.63
34124;BME280;13153;52.316;21.166;2023-03-11T14:58:32;98509.72;;;7.25;51.20
34124;BME280;13153;52.316;21.166;2023-03-11T15:01:20;98514.00;;;7.17;50.84
34124;BME280;13153;52.316;21.166;2023-03-11T15:03:56;98516.59;;;7.17;50.50
34124;BME280;13153;52.316;21.166;2023-03-11T15:06:27;98531.44;;;7.18;50.16
34124;BME280;13153;52.316;21.166;2023-03-11T15:11:50;98548.88;;;7.18;50.37
34124;BME280;13153;52.316;21.166;2023-03-11T15:14:27;98555.91;;;7.23;50.28
34124;BME280;13153;52.316;21.166;2023-03-11T15:16:54;98550.66;;;7.23;49.99
34124;BME280;13153;52.316;21.166;2023-03-11T15:19:32;98562.94;;;7.29;49.96
34124;BME280;13153;52.316;21.166;2023-03-11T15:22:52;98569.97;;;7.35;49.36
34124;BME280;13153;52.316;21.166;2023-03-11T15:25:21;98567.31;;;7.30;49.80
34124;BME280;13153;52.316;21.166;2023-03-11T15:27:47;98582.19;;;7.37;49.33
34124;BME280;13153;52.316;21.166;2023-03-11T15:30:22;98581.34;;;7.38;49.17
34124;BME280;13153;52.316;21.166;2023-03-11T15:32:49;98590.09;;;7.42;49.35
34124;BME280;13153;52.316;21.166;2023-03-11T15:35:17;98592.59;;;7.29;48.70
34124;BME280;13153;52.316;21.166;2023-03-11T15:37:45;98601.41;;;7.41;48.52
34124;BME280;13153;52.316;21.166;2023-03-11T15:40:27;98598.75;;;7.36;48.38
34124;BME280;13153;52.316;21.166;2023-03-11T15:43:26;98610.06;;;7.34;48.25
34124;BME280;13153;52.316;21.166;2023-03-11T15:45:53;98616.13;;;7.31;48.34
34124;BME280;13153;52.316;21.166;2023-03-11T15:48:21;98620.47;;;7.27;47.51
34124;BME280;13153;52.316;21.166;2023-03-11T15:50:54;98624.75;;;7.21;47.03
34124;BME280;13153;52.316;21.166;2023-03-11T15:53:22;98637.72;;;7.13;47.42
34124;BME280;13153;52.316;21.166;2023-03-11T15:55:48;98644.63;;;7.07;47.47
34124;BME280;13153;52.316;21.166;2023-03-11T15:58:17;98650.72;;;7.07;46.84
34124;BME280;13153;52.316;21.166;2023-03-11T16:00:53;98653.31;;;7.04;47.55
34124;BME280;13153;52.316;21.166;2023-03-11T16:03:22;98659.41;;;7.05;46.69
34124;BME280;13153;52.316;21.166;2023-03-11T16:05:48;98662.19;;;7.18;47.36
34124;BME280;13153;52.316;21.166;2023-03-11T16:08:15;98664.00;;;7.22;46.81
34124;BME280;13153;52.316;21.166;2023-03-11T16:10:41;98677.94;;;7.23;46.92
34124;BME280;13153;52.316;21.166;2023-03-11T16:13:13;98684.78;;;7.13;46.55
34124;BME280;13153;52.316;21.166;2023-03-11T16:15:40;98693.47;;;7.11;46.07
34124;BME280;13153;52.316;21.166;2023-03-11T16:18:08;98691.69;;;7.08;47.27
34124;BME280;13153;52.316;21.166;2023-03-11T16:23:21;98697.00;;;7.13;46.77
34124;BME280;13153;52.316;21.166;2023-03-11T16:25:55;98709.13;;;7.08;46.00
34124;BME280;13153;52.316;21.166;2023-03-11T16:28:21;98713.44;;;7.04;46.67
34124;BME280;13153;52.316;21.166;2023-03-11T16:30:49;98718.59;;;7.00;46.60
34124;BME280;13153;52.316;21.166;2023-03-11T16:33:16;98727.44;;;7.08;47.32
34124;BME280;13153;52.316;21.166;2023-03-11T16:35:42;98731.84;;;7.12;46.44
34124;BME280;13153;52.316;21.166;2023-03-11T16:38:08;98739.63;;;7.07;46.56
34124;BME280;13153;52.316;21.166;2023-03-11T16:40:35;98747.44;;;7.06;46.32
34124;BME280;13153;52.316;21.166;2023-03-11T16:43:11;98755.34;;;7.10;46.75
34124;BME280;13153;52.316;21.166;2023-03-11T16:45:39;98758.00;;;7.12;46.57
34124;BME280;13153;52.316;21.166;2023-03-11T16:48:05;98764.09;;;7.11;47.12
34124;BME280;13153;52.316;21.166;2023-03-11T16:50:32;98771.94;;;7.12;46.79
34124;BME280;13153;52.316;21.166;2023-03-11T16:52:58;98777.00;;;7.00;47.05
34124;BME280;13153;52.316;21.166;2023-03-11T16:55:26;98782.38;;;7.09;46.83
34124;BME280;13153;52.316;21.166;2023-03-11T16:57:52;98798.88;;;7.05;46.68
34124;BME280;13153;52.316;21.166;2023-03-11T17:00:20;98799.72;;;7.04;47.09
34124;BME280;13153;52.316;21.166;2023-03-11T17:02:46;98805.84;;;7.06;47.36
34124;BME280;13153;52.316;21.166;2023-03-11T17:05:12;98817.22;;;7.08;47.08
34124;BME280;13153;52.316;21.166;2023-03-11T17:07:39;98818.81;;;6.99;46.92
34124;BME280;13153;52.316;21.166;2023-03-11T17:10:06;98825.78;;;6.98;47.01
34124;BME280;13153;52.316;21.166;2023-03-11T17:12:32;98837.16;;;7.02;46.69
34124;BME280;13153;52.316;21.166;2023-03-11T17:14:59;98839.81;;;7.05;46.67
34124;BME280;13153;52.316;21.166;2023-03-11T17:17:25;98844.19;;;7.04;46.45
34124;BME280;13153;52.316;21.166;2023-03-11T17:19:50;98845.81;;;6.97;46.89
34124;BME280;13153;52.316;21.166;2023-03-11T17:22:16;98850.13;;;6.94;46.41
34124;BME280;13153;52.316;21.166;2023-03-11T17:24:42;98854.41;;;6.89;46.71
34124;BME280;13153;52.316;21.166;2023-03-11T17:27:08;98858.75;;;6.87;45.95
34124;BME280;13153;52.316;21.166;2023-03-11T17:29:34;98858.84;;;6.93;46.06
34124;BME280;13153;52.316;21.166;2023-03-11T17:32:01;98864.88;;;6.89;46.08
34124;BME280;13153;52.316;21.166;2023-03-11T17:34:27;98872.78;;;6.92;46.82
34124;BME280;13153;52.316;21.166;2023-03-11T17:36:53;98867.53;;;6.93;46.54
34124;BME280;13153;52.316;21.166;2023-03-11T17:39:20;98872.78;;;6.92;47.67
34124;BME280;13153;52.316;21.166;2023-03-11T17:41:46;98879.66;;;6.87;47.08
34124;BME280;13153;52.316;21.166;2023-03-11T17:44:13;98884.81;;;6.84;47.89
34124;BME280;13153;52.316;21.166;2023-03-11T17:46:39;98890.81;;;6.77;48.38
34124;BME280;13153;52.316;21.166;2023-03-11T17:49:08;98894.34;;;6.80;48.19
34124;BME280;13153;52.316;21.166;2023-03-11T17:51:36;98898.72;;;6.81;48.99
34124;BME280;13153;52.316;21.166;2023-03-11T17:54:03;98897.88;;;6.82;48.86
34124;BME280;13153;52.316;21.166;2023-03-11T17:56:30;98909.97;;;6.77;48.78
34124;BME280;13153;52.316;21.166;2023-03-11T17:58:56;98908.19;;;6.75;48.58
34124;BME280;13153;52.316;21.166;2023-03-11T18:01:25;98912.50;;;6.73;48.65
34124;BME280;13153;52.316;21.166;2023-03-11T18:03:51;98915.88;;;6.66;49.25
34124;BME280;13153;52.316;21.166;2023-03-11T18:06:19;98917.59;;;6.65;48.47
34124;BME280;13153;52.316;21.166;2023-03-11T18:08:45;98920.16;;;6.62;49.32
34124;BME280;13153;52.316;21.166;2023-03-11T18:11:14;98929.72;;;6.61;48.87
34124;BME280;13153;52.316;21.166;2023-03-11T18:13:41;98929.72;;;6.61;48.85
34124;BME280;13153;52.316;21.166;2023-03-11T18:16:14;98936.63;;;6.58;49.08
34124;BME280;13153;52.316;21.166;2023-03-11T18:18:41;98944.56;;;6.64;49.14
34124;BME280;13153;52.316;21.166;2023-03-11T18:21:12;98949.88;;;6.67;49.24
34124;BME280;13153;52.316;21.166;2023-03-11T18:23:39;98956.75;;;6.63;48.61
34124;BME280;13153;52.316;21.166;2023-03-11T18:26:07;98954.16;;;6.63;48.97
34124;BME280;13153;52.316;21.166;2023-03-11T18:28:34;98968.13;;;6.66;48.76
34124;BME280;13153;52.316;21.166;2023-03-11T18:31:10;98968.09;;;6.64;48.49
34124;BME280;13153;52.316;21.166;2023-03-11T18:33:37;98971.47;;;6.58;48.27
34124;BME280;13153;52.316;21.166;2023-03-11T18:36:24;98976.75;;;6.61;48.51
34124;BME280;13153;52.316;21.166;2023-03-11T18:38:54;98990.63;;;6.57;48.28
34124;BME280;13153;52.316;21.166;2023-03-11T18:41:22;98990.56;;;6.54;48.24
34124;BME280;13153;52.316;21.166;2023-03-11T18:43:53;98995.72;;;6.51;48.26
34124;BME280;13153;52.316;21.166;2023-03-11T18:46:19;98996.59;;;6.52;48.31
34124;BME280;13153;52.316;21.166;2023-03-11T18:48:45;98998.25;;;6.48;48.34
34124;BME280;13153;52.316;21.166;2023-03-11T18:51:11;99013.94;;;6.48;48.18
34124;BME280;13153;52.316;21.166;2023-03-11T18:53:37;99017.41;;;6.47;48.09
34124;BME280;13153;52.316;21.166;2023-03-11T18:56:06;99029.41;;;6.39;48.46
34124;BME280;13153;52.316;21.166;2023-03-11T18:58:33;99032.78;;;6.32;48.11
34124;BME280;13153;52.316;21.166;2023-03-11T19:01:11;99035.09;;;6.18;48.19
34124;BME280;13153;52.316;21.166;2023-03-11T19:03:43;99037.69;;;6.18;48.22
34124;BME280;13153;52.316;21.166;2023-03-11T19:06:11;99041.84;;;6.09;48.18
34124;BME280;13153;52.316;21.166;2023-03-11T19:08:38;99045.94;;;5.97;48.43
34124;BME280;13153;52.316;21.166;2023-03-11T19:11:13;99044.13;;;5.95;48.88
34124;BME280;13153;52.316;21.166;2023-03-11T19:13:40;99044.06;;;5.92;49.11
34124;BME280;13153;52.316;21.166;2023-03-11T19:16:11;99053.63;;;5.91;48.86
34124;BME280;13153;52.316;21.166;2023-03-11T19:18:37;99050.09;;;5.89;49.06
34124;BME280;13153;52.316;21.166;2023-03-11T19:21:06;99062.28;;;5.90;48.85
34124;BME280;13153;52.316;21.166;2023-03-11T19:23:33;99065.59;;;5.85;49.25
34124;BME280;13153;52.316;21.166;2023-03-11T19:25:59;99073.50;;;5.88;48.98
34124;BME280;13153;52.316;21.166;2023-03-11T19:28:25;99076.25;;;5.92;49.00
34124;BME280;13153;52.316;21.166;2023-03-11T19:30:55;99084.63;;;5.81;48.73
34124;BME280;13153;52.316;21.166;2023-03-11T19:33:22;99090.81;;;5.84;49.02
34124;BME280;13153;52.316;21.166;2023-03-11T19:35:54;99085.63;;;5.86;49.02
34124;BME280;13153;52.316;21.166;2023-03-11T19:38:21;99093.44;;;5.84;49.07
34124;BME280;13153;52.316;21.166;2023-03-11T19:41:09;99102.94;;;5.82;48.75
34124;BME280;13153;52.316;21.166;2023-03-11T19:43:36;99103.75;;;5.80;49.08
34124;BME280;13153;52.316;21.166;2023-03-11T19:46:03;99106.31;;;5.78;48.75
34124;BME280;13153;52.316;21.166;2023-03-11T19:48:30;99106.25;;;5.74;49.47
34124;BME280;13153;52.316;21.166;2023-03-11T19:50:56;99113.16;;;5.72;49.16
34124;BME280;13153;52.316;21.166;2023-03-11T19:53:23;99120.06;;;5.70;48.90
34124;BME280;13153;52.316;21.166;2023-03-11T19:55:54;99117.41;;;5.68;48.88
34124;BME280;13153;52.316;21.166;2023-03-11T19:58:23;99123.50;;;5.69;48.94
34124;BME280;13153;52.316;21.166;2023-03-11T20:00:49;99124.38;;;5.69;48.96
34124;BME280;13153;52.316;21.166;2023-03-11T20:03:15;99121.66;;;5.64;49.26
34124;BME280;13153;52.316;21.166;2023-03-11T20:05:44;99132.06;;;5.63;49.52
34124;BME280;13153;52.316;21.166;2023-03-11T20:08:15;99129.44;;;5.63;49.25
34124;BME280;13153;52.316;21.166;2023-03-11T20:10:45;99130.22;;;5.59;48.75
34124;BME280;13153;52.316;21.166;2023-03-11T20:13:13;99134.59;;;5.60;48.85
34124;BME280;13153;52.316;21.166;2023-03-11T20:15:39;99136.28;;;5.58;49.17
34124;BME280;13153;52.316;21.166;2023-03-11T20:18:06;99143.97;;;5.53;49.40
34124;BME280;13153;52.316;21.166;2023-03-11T20:20:33;99148.22;;;5.50;49.31
34124;BME280;13153;52.316;21.166;2023-03-11T20:23:01;99155.03;;;5.45;49.44
34124;BME280;13153;52.316;21.166;2023-03-11T20:25:27;99151.59;;;5.46;49.50
34124;BME280;13153;52.316;21.166;2023-03-11T20:27:58;99160.25;;;5.45;49.76
34124;BME280;13153;52.316;21.166;2023-03-11T20:30:24;99163.72;;;5.44;49.94
34124;BME280;13153;52.316;21.166;2023-03-11T20:32:50;99166.31;;;5.44;49.83
34124;BME280;13153;52.316;21.166;2023-03-11T20:35:17;99167.91;;;5.39;49.60
34124;BME280;13153;52.316;21.166;2023-03-11T20:37:44;99174.81;;;5.37;49.47
34124;BME280;13153;52.316;21.166;2023-03-11T20:40:16;99180.97;;;5.39;49.54
34124;BME280;13153;52.316;21.166;2023-03-11T20:42:42;99178.22;;;5.34;49.78
34124;BME280;13153;52.316;21.166;2023-03-11T20:45:16;99175.66;;;5.36;50.25
34124;BME280;13153;52.316;21.166;2023-03-11T20:47:49;99191.31;;;5.36;49.35
34124;BME280;13153;52.316;21.166;2023-03-11T20:50:16;99186.09;;;5.36;50.16
34124;BME280;13153;52.316;21.166;2023-03-11T20:52:41;99188.66;;;5.34;50.05